Round Lake, New York
Current Conditions -  °F | °C
As of 12:51 PM on Wednesday 28 Jan 2015 (Local Time) from KALB Reporting Station
Few Clouds Few Clouds  
Wind Chill:   Ceiling: Unl
Heat Index: 19°   Visibility: 10mi
Dew Point:   Wind: 12mph
Humidity: 43%   Direction: 300°WNW
Pressure: 30.13"   Gusts: NA
Location:  42.94°N, 73.79°W
Report Text: KALB 281751Z 30010KT 10SM FEW110 FEW250 M07/M18 A3013 RMK AO2 SLP209 4/005 933003 60000 T10721178 11072 21117 51005
Loading
Personal Weather Stations






























Interactive Weather Map New forecast layout! Learn more

10-Day Weather Forecast

Advertisements
Track Severe Weather on mobile